Time;durP1;ratioP1;P1;durP2;ratioP2;P2;SDS_P1;SDS_P2;PMS_P1;PMS_P2;Temp;Humidity;BMP_temperature;BMP_pressure;BME280_temperature;BME280_humidity;BME280_pressure;Samples;Min_cycle;Max_cycle;Signal;HPM_P1;HPM_P2
2022/04/15 00:01:24;;;;;;;8.27;4.50;;;9.10;99.90;;;;;;5071854;28;20115;-59
2022/04/15 00:03:51;;;;;;;8.68;4.75;;;9.20;99.90;;;;;;5071982;28;20051;-59
2022/04/15 00:06:17;;;;;;;8.63;4.82;;;9.30;99.90;;;;;;5071446;28;20058;-59
2022/04/15 00:08:43;;;;;;;10.40;4.75;;;9.30;99.90;;;;;;5071488;28;20047;-60
2022/04/15 00:11:09;;;;;;;10.50;4.97;;;9.30;99.90;;;;;;5071743;28;20044;-60
2022/04/15 00:13:36;;;;;;;11.85;5.32;;;9.30;99.90;;;;;;5071987;28;20397;-60
2022/04/15 00:16:04;;;;;;;12.48;5.40;;;9.40;99.90;;;;;;5071807;28;20086;-60
2022/04/15 00:18:30;;;;;;;8.77;5.17;;;9.30;99.90;;;;;;5071800;28;20037;-60
2022/04/15 00:20:56;;;;;;;8.60;5.15;;;9.30;99.90;;;;;;5071582;28;20033;-60
2022/04/15 00:23:22;;;;;;;10.88;5.32;;;9.20;99.90;;;;;;5071364;28;20531;-59
2022/04/15 00:25:52;;;;;;;9.38;5.47;;;9.30;99.90;;;;;;5071893;28;20441;-60
2022/04/15 00:28:18;;;;;;;11.30;5.03;;;9.30;99.90;;;;;;5071585;28;20479;-60
2022/04/15 00:30:44;;;;;;;6.43;4.07;;;9.30;99.90;;;;;;5071649;28;20040;-59
2022/04/15 00:33:10;;;;;;;10.00;5.68;;;9.30;99.90;;;;;;5071674;28;20040;-60
2022/04/15 00:35:36;;;;;;;8.13;4.32;;;9.20;99.90;;;;;;5071679;28;20045;-59
2022/04/15 00:38:02;;;;;;;9.52;4.97;;;9.20;99.90;;;;;;5071519;28;20139;-60
2022/04/15 00:40:28;;;;;;;16.13;4.80;;;9.30;99.90;;;;;;5071443;28;20532;-60
2022/04/15 00:42:53;;;;;;;9.93;5.25;;;9.30;99.90;;;;;;5071120;28;20053;-60
2022/04/15 00:45:19;;;;;;;10.70;4.47;;;9.40;99.90;;;;;;5071400;28;20406;-60
2022/04/15 00:47:53;;;;;;;10.88;5.40;;;9.40;99.90;;;;;;5071423;28;20109;-60
2022/04/15 00:50:23;;;;;;;12.38;5.18;;;9.40;99.90;;;;;;5074982;28;20032;-59
2022/04/15 00:52:52;;;;;;;13.77;4.97;;;9.40;99.90;;;;;;5075240;28;20052;-60
2022/04/15 00:55:21;;;;;;;10.32;5.05;;;9.40;99.90;;;;;;5075068;28;20040;-60
2022/04/15 00:57:55;;;;;;;9.38;5.38;;;9.40;99.90;;;;;;5075172;28;20036;-59
2022/04/15 01:00:22;;;;;;;10.00;5.07;;;9.40;99.90;;;;;;5073821;28;20147;-59
2022/04/15 01:02:49;;;;;;;12.70;5.53;;;9.40;99.90;;;;;;5074968;28;20040;-59
2022/04/15 01:05:15;;;;;;;9.45;5.13;;;9.30;99.90;;;;;;5074836;28;20051;-60
2022/04/15 01:07:44;;;;;;;11.60;5.85;;;9.40;99.90;;;;;;5074842;28;20072;-60
2022/04/15 01:10:12;;;;;;;10.02;5.78;;;9.30;99.90;;;;;;5074702;28;20047;-60
2022/04/15 01:12:40;;;;;;;9.10;5.38;;;9.30;99.90;;;;;;5074759;28;20124;-59
2022/04/15 01:15:09;;;;;;;11.02;5.68;;;9.30;99.90;;;;;;5074511;28;20076;-59
2022/04/15 01:17:35;;;;;;;12.35;5.88;;;9.30;99.90;;;;;;5074934;28;20049;-60
2022/04/15 01:20:03;;;;;;;15.10;5.25;;;9.30;99.90;;;;;;5075441;28;20652;-59
2022/04/15 01:22:33;;;;;;;12.05;4.53;;;9.30;99.90;;;;;;5075091;28;20147;-59
2022/04/15 01:24:58;;;;;;;8.57;4.22;;;9.30;99.90;;;;;;5074718;28;20076;-60
2022/04/15 01:27:32;;;;;;;8.23;4.13;;;9.40;99.90;;;;;;5074723;28;20091;-59
2022/04/15 01:29:58;;;;;;;8.52;4.40;;;9.40;99.90;;;;;;5074536;28;20048;-59
2022/04/15 01:32:23;;;;;;;8.05;4.03;;;9.40;99.90;;;;;;5074527;28;20058;-59
2022/04/15 01:34:49;;;;;;;7.50;3.60;;;9.40;99.90;;;;;;5074102;28;20045;-60
2022/04/15 01:37:17;;;;;;;9.40;3.20;;;9.40;99.90;;;;;;5074251;28;20048;-59
2022/04/15 01:39:43;;;;;;;6.20;3.42;;;9.40;99.90;;;;;;5074239;28;20032;-60
2022/04/15 01:42:16;;;;;;;9.13;3.65;;;9.40;99.90;;;;;;5073833;28;20048;-60
2022/04/15 01:44:43;;;;;;;7.20;3.28;;;9.50;99.90;;;;;;5074267;28;20056;-60
2022/04/15 01:47:10;;;;;;;8.40;3.30;;;9.50;99.90;;;;;;5074161;28;20049;-59
2022/04/15 01:49:37;;;;;;;10.23;3.97;;;9.50;99.90;;;;;;5074155;28;20048;-59
2022/04/15 01:52:06;;;;;;;7.40;3.38;;;9.50;99.90;;;;;;5074177;28;20036;-59
2022/04/15 01:54:31;;;;;;;;;;;9.50;99.90;;;;;;5074317;28;20048;-60
2022/04/15 01:56:57;;;;;;;6.55;3.10;;;9.50;99.90;;;;;;5072829;28;19916;-60
2022/04/15 01:59:23;;;;;;;10.35;4.60;;;9.50;99.90;;;;;;5072806;28;20504;-60
2022/04/15 02:01:50;;;;;;;10.65;4.07;;;9.50;99.90;;;;;;5074112;28;20111;-60
2022/04/15 02:04:16;;;;;;;12.00;4.57;;;9.50;99.90;;;;;;5073997;28;20042;-60
2022/04/15 02:06:41;;;;;;;7.68;4.20;;;9.50;99.90;;;;;;5072272;28;20394;-59
2022/04/15 02:09:07;;;;;;;11.90;3.97;;;9.60;99.90;;;;;;5073565;28;20464;-60
2022/04/15 02:11:34;;;;;;;8.60;4.00;;;9.60;99.90;;;;;;5073417;28;20507;-59
2022/04/15 02:14:00;;;;;;;11.07;4.45;;;9.50;99.90;;;;;;5073479;28;20479;-59
2022/04/15 02:16:25;;;;;;;11.05;4.20;;;9.60;99.90;;;;;;5073774;28;20043;-58
2022/04/15 02:18:51;;;;;;;8.82;4.78;;;9.60;99.90;;;;;;5073916;28;20041;-59
2022/04/15 02:21:16;;;;;;;14.05;4.95;;;9.60;99.90;;;;;;5073770;28;20486;-59
2022/04/15 02:23:42;;;;;;;9.43;5.10;;;9.60;99.90;;;;;;5073641;28;20047;-60
2022/04/15 02:26:08;;;;;;;13.75;5.93;;;9.60;99.90;;;;;;5073423;28;20055;-59
2022/04/15 02:28:33;;;;;;;14.35;5.95;;;9.60;99.90;;;;;;5073210;28;20052;-60
2022/04/15 02:30:59;;;;;;;15.85;6.22;;;9.60;99.90;;;;;;5073295;28;20040;-60
2022/04/15 02:33:25;;;;;;;14.00;5.72;;;9.60;99.90;;;;;;5073104;28;20040;-59
2022/04/15 02:35:50;;;;;;;13.27;6.32;;;9.60;99.90;;;;;;5072913;28;20398;-59
2022/04/15 02:38:16;;;;;;;13.88;5.95;;;9.50;99.90;;;;;;5073264;28;20041;-59
2022/04/15 02:40:43;;;;;;;12.30;6.65;;;9.60;99.90;;;;;;5072998;28;20417;-59
2022/04/15 02:43:10;;;;;;;10.95;5.90;;;9.50;99.90;;;;;;5072900;28;20048;-59
2022/04/15 02:45:36;;;;;;;10.43;6.20;;;9.50;99.90;;;;;;5073001;28;20474;-59
2022/04/15 02:48:02;;;;;;;13.75;6.28;;;9.50;99.90;;;;;;5073301;28;20032;-59
2022/04/15 02:50:29;;;;;;;18.85;9.00;;;9.50;99.90;;;;;;5072927;28;20044;-59
2022/04/15 02:52:54;;;;;;;17.15;10.30;;;9.50;99.90;;;;;;5072853;28;20044;-59
2022/04/15 02:55:20;;;;;;;17.30;11.57;;;9.40;99.90;;;;;;5072771;28;20048;-59
2022/04/15 02:57:46;;;;;;;17.33;11.23;;;9.40;99.90;;;;;;5073136;28;20097;-60
2022/04/15 03:00:13;;;;;;;18.98;11.57;;;9.30;99.90;;;;;;5073067;28;20111;-59
2022/04/15 03:02:38;;;;;;;15.48;10.65;;;9.20;99.90;;;;;;5073072;28;20040;-60
2022/04/15 03:05:06;;;;;;;16.60;10.75;;;9.20;99.90;;;;;;5073093;28;20052;-59
2022/04/15 03:07:32;;;;;;;18.77;10.82;;;9.20;99.90;;;;;;5072604;28;20054;-59
2022/04/15 03:09:58;;;;;;;11.98;9.20;;;9.10;99.90;;;;;;5072665;28;20044;-59
2022/04/15 03:12:24;;;;;;;15.70;9.00;;;9.10;99.90;;;;;;5072414;28;20088;-60
2022/04/15 03:14:51;;;;;;;11.82;9.20;;;9.00;99.90;;;;;;5072492;28;20105;-59
2022/04/15 03:17:16;;;;;;;9.43;8.43;;;9.00;99.90;;;;;;5072647;28;20472;-59
2022/04/15 03:19:42;;;;;;;7.72;6.70;;;9.00;99.90;;;;;;5072438;28;20112;-59
2022/04/15 03:22:07;;;;;;;9.93;6.45;;;9.00;99.90;;;;;;5072235;28;20089;-59
2022/04/15 03:24:33;;;;;;;8.82;5.82;;;8.90;99.90;;;;;;5072379;28;20037;-59
2022/04/15 03:26:59;;;;;;;10.35;5.47;;;8.90;99.90;;;;;;5071113;28;20033;-59
2022/04/15 03:29:24;;;;;;;8.13;4.80;;;8.80;99.90;;;;;;5072379;28;20528;-59
2022/04/15 03:31:50;;;;;;;7.45;5.45;;;8.80;99.90;;;;;;5070725;28;20106;-60
2022/04/15 03:34:16;;;;;;;6.63;5.05;;;8.70;99.90;;;;;;5072246;28;20040;-60
2022/04/15 03:36:42;;;;;;;7.68;5.20;;;8.70;99.90;;;;;;5071876;28;20043;-60
2022/04/15 03:39:07;;;;;;;8.10;5.18;;;8.70;99.90;;;;;;5072010;28;20040;-59
2022/04/15 03:41:33;;;;;;;5.82;4.70;;;8.60;99.90;;;;;;5072116;28;20052;-59
2022/04/15 03:44:01;;;;;;;6.25;4.47;;;8.60;99.90;;;;;;5072219;28;20406;-59
2022/04/15 03:46:27;;;;;;;4.72;4.28;;;8.50;99.90;;;;;;5072030;28;20063;-59
2022/04/15 03:48:52;;;;;;;5.30;3.80;;;8.50;99.90;;;;;;5071962;28;20040;-59
2022/04/15 03:51:18;;;;;;;4.60;3.10;;;8.50;99.90;;;;;;5072069;28;20036;-59
2022/04/15 03:53:43;;;;;;;6.30;3.67;;;8.50;99.90;;;;;;5071809;28;20119;-59
2022/04/15 03:56:09;;;;;;;4.85;3.30;;;8.50;99.90;;;;;;5072183;28;20076;-60
2022/04/15 03:58:35;;;;;;;4.65;3.22;;;8.50;99.90;;;;;;5072087;28;20047;-59
2022/04/15 04:01:01;;;;;;;4.10;3.63;;;8.60;99.90;;;;;;5071058;28;20040;-59
2022/04/15 04:03:27;;;;;;;5.15;4.60;;;8.50;99.90;;;;;;5070441;28;20589;-59
2022/04/15 04:05:52;;;;;;;6.57;4.63;;;8.50;99.90;;;;;;5071550;28;20048;-59
2022/04/15 04:08:18;;;;;;;7.28;4.07;;;8.50;99.90;;;;;;5071621;28;20048;-60
2022/04/15 04:10:44;;;;;;;5.55;4.43;;;8.60;99.90;;;;;;5071931;28;20033;-59
2022/04/15 04:13:09;;;;;;;6.20;4.22;;;8.70;99.90;;;;;;5071849;28;20066;-60
2022/04/15 04:15:35;;;;;;;6.20;4.63;;;8.60;99.90;;;;;;5071690;28;20033;-59
2022/04/15 04:18:01;;;;;;;4.97;4.32;;;8.60;99.90;;;;;;5072027;28;20501;-59
2022/04/15 04:20:27;;;;;;;6.30;3.90;;;8.50;99.90;;;;;;5071407;28;20098;-59
2022/04/15 04:22:53;;;;;;;5.22;3.67;;;8.50;99.90;;;;;;5072125;28;20040;-59
2022/04/15 04:25:19;;;;;;;6.22;3.45;;;8.50;99.90;;;;;;5075865;28;20047;-60
2022/04/15 04:27:44;;;;;;;4.63;3.78;;;8.60;99.90;;;;;;5075807;28;20040;-60
2022/04/15 04:30:15;;;;;;;4.68;3.50;;;8.60;99.90;;;;;;5075690;28;20036;-59
2022/04/15 04:32:50;;;;;;;6.22;3.05;;;8.50;99.90;;;;;;5075459;28;20047;-59
2022/04/15 04:35:18;;;;;;;4.93;3.50;;;8.60;99.90;;;;;;5075297;28;20483;-59
2022/04/15 04:37:44;;;;;;;5.80;3.33;;;8.60;99.90;;;;;;5075668;28;20040;-60
2022/04/15 04:40:10;;;;;;;7.68;4.07;;;8.60;99.90;;;;;;5075577;28;20107;-60
2022/04/15 04:42:36;;;;;;;7.43;3.65;;;8.60;99.90;;;;;;5075158;28;20044;-59
2022/04/15 04:45:01;;;;;;;4.30;3.63;;;8.60;99.90;;;;;;5075226;28;20089;-60
2022/04/15 04:47:28;;;;;;;4.82;3.08;;;8.60;99.90;;;;;;5075200;28;20072;-60
2022/04/15 04:49:55;;;;;;;3.03;2.65;;;8.60;99.90;;;;;;5073748;28;20237;-59
2022/04/15 04:52:23;;;;;;;4.22;2.80;;;8.50;99.90;;;;;;5075055;28;20044;-60
2022/04/15 04:54:49;;;;;;;4.43;2.80;;;8.50;99.90;;;;;;5075135;28;20036;-60
2022/04/15 04:57:15;;;;;;;3.47;2.72;;;8.50;99.90;;;;;;5074982;28;20041;-59
2022/04/15 04:59:40;;;;;;;5.88;3.22;;;8.50;99.90;;;;;;5075209;28;20037;-60
2022/04/15 05:02:06;;;;;;;5.05;3.30;;;8.50;99.90;;;;;;5073983;28;20478;-59
2022/04/15 05:04:32;;;;;;;3.30;2.80;;;8.40;99.90;;;;;;5073443;28;20141;-59
2022/04/15 05:06:57;;;;;;;5.03;3.25;;;8.40;99.90;;;;;;5074878;28;20033;-59
2022/04/15 05:09:23;;;;;;;4.20;2.88;;;8.50;99.90;;;;;;5075005;28;20391;-59
2022/04/15 05:11:51;;;;;;;5.78;3.28;;;8.40;99.90;;;;;;5075116;28;20122;-59
2022/04/15 05:14:17;;;;;;;4.40;3.60;;;8.40;99.90;;;;;;5074703;28;20048;-59
2022/04/15 05:16:43;;;;;;;6.07;3.78;;;8.40;99.90;;;;;;5073501;28;20106;-59
2022/04/15 05:19:09;;;;;;;5.40;3.60;;;8.40;99.90;;;;;;5074846;28;20037;-59
2022/04/15 05:21:35;;;;;;;5.30;3.53;;;8.30;99.90;;;;;;5074789;28;20040;-59
2022/04/15 05:24:01;;;;;;;9.60;3.65;;;8.30;99.90;;;;;;5074680;28;20083;-59
2022/04/15 05:26:29;;;;;;;6.50;3.85;;;8.30;99.90;;;;;;5074932;28;20076;-59
2022/04/15 05:28:55;;;;;;;6.93;3.97;;;8.40;99.90;;;;;;5073113;28;20080;-59
2022/04/15 05:31:20;;;;;;;4.57;3.45;;;8.40;99.90;;;;;;5074683;28;20076;-58
2022/04/15 05:33:46;;;;;;;6.00;3.70;;;8.40;99.90;;;;;;5073166;28;20102;-59
2022/04/15 05:36:11;;;;;;;6.32;3.00;;;8.30;99.90;;;;;;5074605;28;20032;-59
2022/04/15 05:38:37;;;;;;;5.57;3.25;;;8.10;99.90;;;;;;5074243;28;20040;-59
2022/04/15 05:41:02;;;;;;;5.00;3.67;;;8.20;99.90;;;;;;5074112;28;20441;-59
2022/04/15 05:43:28;;;;;;;4.28;3.53;;;8.30;99.90;;;;;;5074143;28;20128;-59
2022/04/15 05:45:55;;;;;;;6.85;3.90;;;8.20;99.90;;;;;;5074143;28;20051;-59
2022/04/15 05:48:20;;;;;;;5.15;4.35;;;8.20;99.90;;;;;;5074015;28;20045;-59
2022/04/15 05:50:46;;;;;;;7.20;4.80;;;8.20;99.90;;;;;;5074062;28;20041;-59
2022/04/15 05:53:13;;;;;;;10.13;4.90;;;8.30;99.90;;;;;;5074176;28;20044;-59
2022/04/15 05:55:39;;;;;;;9.23;5.18;;;8.30;99.90;;;;;;5074093;28;20052;-59
2022/04/15 05:58:05;;;;;;;6.32;4.95;;;8.30;99.90;;;;;;5073969;28;20041;-60
2022/04/15 06:00:31;;;;;;;9.32;6.15;;;8.40;99.90;;;;;;5073825;28;20048;-59
2022/04/15 06:02:57;;;;;;;6.85;5.25;;;8.50;99.90;;;;;;5072913;28;20044;-59
2022/04/15 06:05:24;;;;;;;7.43;5.90;;;8.50;99.90;;;;;;5073695;28;20076;-59
2022/04/15 06:07:50;;;;;;;8.57;5.80;;;8.50;99.90;;;;;;5073902;28;20108;-59
2022/04/15 06:10:16;;;;;;;7.10;5.78;;;8.50;99.90;;;;;;5073635;28;20047;-60
2022/04/15 06:12:54;;;;;;;10.00;6.18;;;8.50;99.90;;;;;;5073562;28;20036;-60
2022/04/15 06:15:24;;;;;;;8.35;6.38;;;8.60;99.90;;;;;;5073350;28;20222;-59
2022/04/15 06:17:51;;;;;;;9.00;7.32;;;8.60;99.90;;;;;;5073660;28;20094;-59
2022/04/15 06:20:17;;;;;;;8.18;7.30;;;8.60;99.90;;;;;;5073777;28;20102;-59
2022/04/15 06:22:44;;;;;;;9.60;7.60;;;8.70;99.90;;;;;;5073394;28;20044;-59
2022/04/15 06:25:10;;;;;;;9.07;7.13;;;8.70;99.90;;;;;;5073604;28;20047;-60
2022/04/15 06:27:36;;;;;;;14.15;8.05;;;8.70;99.90;;;;;;5073260;28;20157;-59
2022/04/15 06:30:02;;;;;;;10.38;7.45;;;8.80;99.90;;;;;;5073345;28;20504;-59
2022/04/15 06:32:28;;;;;;;9.73;8.35;;;8.80;99.90;;;;;;5073254;28;20143;-59
2022/04/15 06:34:53;;;;;;;12.57;9.25;;;8.80;99.90;;;;;;5073209;28;20301;-59
2022/04/15 06:37:19;;;;;;;13.90;8.82;;;8.80;99.90;;;;;;5073122;28;20364;-59
2022/04/15 06:39:50;;;;;;;13.13;8.48;;;8.80;99.90;;;;;;5073195;28;20111;-59
2022/04/15 06:42:24;;;;;;;14.13;8.77;;;8.90;99.90;;;;;;5072685;28;20048;-59
2022/04/15 06:44:50;;;;;;;13.60;9.85;;;8.90;99.90;;;;;;5073233;28;20051;-59
2022/04/15 06:47:16;;;;;;;14.63;9.02;;;8.90;99.90;;;;;;5072631;28;20041;-59
2022/04/15 06:49:43;;;;;;;12.70;8.95;;;8.90;99.90;;;;;;5072788;28;20066;-59
2022/04/15 06:52:08;;;;;;;12.73;9.93;;;9.00;99.90;;;;;;5072946;28;20043;-60
2022/04/15 06:54:34;;;;;;;16.30;9.75;;;9.00;99.90;;;;;;5072725;28;20386;-60
2022/04/15 06:57:00;;;;;;;14.95;9.50;;;9.00;99.90;;;;;;5072610;28;20043;-59
2022/04/15 06:59:26;;;;;;;16.85;9.65;;;8.90;99.90;;;;;;5072384;28;20043;-59
2022/04/15 07:01:51;;;;;;;16.20;9.45;;;8.80;99.90;;;;;;5072968;28;20141;-59
2022/04/15 07:04:17;;;;;;;16.45;9.93;;;9.00;99.90;;;;;;5072505;28;20111;-60
2022/04/15 07:06:43;;;;;;;17.58;9.52;;;9.00;99.90;;;;;;5072610;28;20084;-60
2022/04/15 07:09:09;;;;;;;17.17;10.18;;;9.00;99.90;;;;;;5071301;28;20056;-59
2022/04/15 07:11:34;;;;;;;15.52;9.35;;;9.00;99.90;;;;;;5072610;28;20052;-59
2022/04/15 07:14:00;;;;;;;18.17;8.90;;;9.00;99.90;;;;;;5071118;28;20044;-59
2022/04/15 07:16:26;;;;;;;15.48;9.10;;;9.10;99.90;;;;;;5072243;28;20436;-59
2022/04/15 07:18:52;;;;;;;16.60;9.52;;;9.10;99.90;;;;;;5072382;28;20076;-59
2022/04/15 07:21:18;;;;;;;16.35;9.18;;;9.20;99.90;;;;;;5072380;28;20111;-59
2022/04/15 07:23:45;;;;;;;19.30;9.00;;;9.20;99.90;;;;;;5072233;28;20050;-60
2022/04/15 07:26:10;;;;;;;13.88;8.57;;;9.20;99.90;;;;;;5071957;28;20037;-59
2022/04/15 07:28:36;;;;;;;16.23;7.90;;;9.40;99.90;;;;;;5072275;28;20127;-60
2022/04/15 07:31:02;;;;;;;13.30;8.32;;;9.40;99.90;;;;;;5072378;28;20044;-60
2022/04/15 07:33:27;;;;;;;18.77;7.07;;;9.50;99.90;;;;;;5072321;28;20083;-59
2022/04/15 07:35:53;;;;;;;10.93;6.13;;;9.50;99.90;;;;;;5071881;28;20098;-60
2022/04/15 07:38:18;;;;;;;11.20;6.93;;;9.50;99.90;;;;;;5071990;28;20033;-60
2022/04/15 07:40:44;;;;;;;11.77;6.80;;;9.60;99.90;;;;;;5071659;28;20433;-60
2022/04/15 07:43:10;;;;;;;11.18;6.80;;;9.60;99.90;;;;;;5071714;28;20045;-60
2022/04/15 07:45:35;;;;;;;11.18;6.35;;;9.60;99.90;;;;;;5072099;28;20041;-60
2022/04/15 07:48:01;;;;;;;12.52;6.78;;;9.50;99.90;;;;;;5071899;28;20032;-60
2022/04/15 07:50:27;;;;;;;14.30;7.15;;;9.60;99.90;;;;;;5072070;28;20048;-60
2022/04/15 07:52:57;;;;;;;12.77;6.88;;;9.70;99.90;;;;;;5071778;28;20051;-60
2022/04/15 07:55:22;;;;;;;16.33;6.57;;;9.70;99.90;;;;;;5071676;28;20040;-59
2022/04/15 07:57:48;;;;;;;14.68;5.88;;;9.70;99.90;;;;;;5071934;28;20040;-60
2022/04/15 08:00:14;;;;;;;14.25;6.38;;;9.80;99.90;;;;;;5070763;28;20036;-60
2022/04/15 08:02:41;;;;;;;9.80;5.93;;;9.80;99.90;;;;;;5072075;28;20498;-59
2022/04/15 08:05:07;;;;;;;14.23;5.63;;;9.80;99.90;;;;;;5071415;28;20044;-60
2022/04/15 08:07:33;;;;;;;11.85;6.38;;;9.80;99.90;;;;;;5071520;28;20055;-59
2022/04/15 08:09:58;;;;;;;11.70;7.00;;;10.00;99.90;;;;;;5071889;28;20040;-59
2022/04/15 08:12:24;;;;;;;10.68;5.75;;;10.00;99.90;;;;;;5071498;28;20094;-60
2022/04/15 08:14:51;;;;;;;10.15;5.50;;;10.00;99.90;;;;;;5070243;28;20433;-60
2022/04/15 08:17:17;;;;;;;10.63;5.10;;;10.10;99.90;;;;;;5071347;28;20490;-59
2022/04/15 08:19:43;;;;;;;9.38;4.82;;;10.30;99.90;;;;;;5069747;28;20056;-61
2022/04/15 08:22:09;;;;;;;8.30;4.78;;;10.50;99.90;;;;;;5071597;28;20141;-61
2022/04/15 08:24:42;;;;;;;11.85;5.60;;;10.70;99.90;;;;;;5071528;28;20041;-61
2022/04/15 08:27:11;;;;;;;10.18;5.03;;;10.80;99.90;;;;;;5071382;28;20041;-61
2022/04/15 08:29:38;;;;;;;8.68;5.32;;;11.00;99.90;;;;;;5070384;28;20051;-60
2022/04/15 08:32:05;;;;;;;9.48;5.30;;;10.90;99.90;;;;;;5071367;28;20080;-60
2022/04/15 08:34:31;;;;;;;7.18;5.38;;;10.90;99.90;;;;;;5071512;28;20119;-60
2022/04/15 08:36:56;;;;;;;13.85;6.20;;;10.90;99.90;;;;;;5071060;28;20131;-59
2022/04/15 08:39:22;;;;;;;11.25;5.70;;;10.80;99.90;;;;;;5071264;28;20044;-61
2022/04/15 08:41:48;;;;;;;11.02;5.55;;;10.90;99.90;;;;;;5071226;28;20094;-60
2022/04/15 08:44:14;;;;;;;12.02;5.82;;;10.90;99.90;;;;;;5071417;28;20454;-60
2022/04/15 08:46:40;;;;;;;9.63;4.82;;;11.00;99.90;;;;;;5071333;28;20109;-60
2022/04/15 08:49:07;;;;;;;9.75;4.65;;;11.40;99.90;;;;;;5071383;28;20441;-60
2022/04/15 08:51:35;;;;;;;8.18;4.38;;;12.00;99.90;;;;;;5071196;28;20521;-60
2022/04/15 08:54:03;;;;;;;9.27;4.82;;;12.30;99.90;;;;;;5071390;28;20044;-61
2022/04/15 08:56:29;;;;;;;9.23;5.05;;;12.70;99.90;;;;;;5070966;28;20495;-65
2022/04/15 08:58:56;;;;;;;6.72;4.45;;;12.90;99.90;;;;;;5071153;28;20090;-61
2022/04/15 09:01:21;;;;;;;8.05;4.32;;;13.00;99.90;;;;;;5071310;28;20043;-60
2022/04/15 09:03:47;;;;;;;7.07;4.05;;;13.40;99.90;;;;;;5071378;28;20044;-60
2022/04/15 09:06:16;;;;;;;5.93;4.00;;;13.20;99.90;;;;;;5071136;28;20048;-61
2022/04/15 09:09:06;;;;;;;9.25;4.70;;;13.50;99.90;;;;;;5071621;28;20153;-60
2022/04/15 09:11:34;;;;;;;8.05;3.75;;;14.00;99.90;;;;;;5074785;28;20036;-60
2022/04/15 09:14:11;;;;;;;9.15;3.90;;;14.00;99.90;;;;;;5074732;28;20036;-61
2022/04/15 09:16:48;;;;;;;8.95;4.38;;;13.90;99.90;;;;;;5074422;28;20044;-61
2022/04/15 09:19:15;;;;;;;7.75;4.15;;;13.80;99.90;;;;;;5074720;28;20068;-60
2022/04/15 09:21:48;;;;;;;6.55;4.22;;;13.50;99.90;;;;;;5074654;28;20426;-60
2022/04/15 09:24:14;;;;;;;8.55;4.00;;;13.10;99.90;;;;;;5074631;28;20548;-60
2022/04/15 09:26:44;;;;;;;7.95;3.92;;;13.00;99.90;;;;;;5074454;28;20124;-60
2022/04/15 09:29:12;;;;;;;9.38;4.93;;;13.10;99.90;;;;;;5074794;28;20076;-61
2022/04/15 09:31:37;;;;;;;6.68;3.95;;;13.20;99.90;;;;;;5074222;28;20045;-60
2022/04/15 09:34:06;;;;;;;6.50;4.60;;;13.00;99.90;;;;;;5074452;28;20090;-60
2022/04/15 09:36:35;;;;;;;8.77;4.93;;;12.90;99.90;;;;;;5074507;28;20046;-60
2022/04/15 09:39:14;;;;;;;7.32;3.60;;;13.40;99.90;;;;;;5074312;28;20128;-60
2022/04/15 09:41:41;;;;;;;8.50;4.60;;;13.50;99.90;;;;;;5073798;28;20053;-59
2022/04/15 09:44:11;;;;;;;7.85;4.38;;;13.50;99.90;;;;;;5074030;28;20451;-60
2022/04/15 09:46:40;;;;;;;10.93;5.88;;;13.60;99.90;;;;;;5074160;28;20410;-60
2022/04/15 09:49:07;;;;;;;10.00;5.32;;;13.20;99.90;;;;;;5074083;28;20045;-59
2022/04/15 09:51:51;;;;;;;12.98;5.40;;;13.10;99.90;;;;;;5074061;28;20044;-60
2022/04/15 09:54:30;;;;;;;8.55;5.22;;;13.30;99.90;;;;;;5073780;28;20040;-59
2022/04/15 09:56:59;;;;;;;7.93;4.30;;;13.30;99.90;;;;;;5073960;28;20040;-60
2022/04/15 09:59:25;;;;;;;;;;;13.30;99.90;;;;;;5073202;28;20068;-60
2022/04/15 10:01:57;;;;;;;7.70;5.13;;;13.30;99.90;;;;;;5073852;28;19956;-60
2022/04/15 10:04:24;;;;;;;12.25;5.03;;;13.00;99.90;;;;;;5073899;28;20032;-59
2022/04/15 10:06:50;;;;;;;12.82;4.80;;;12.90;99.90;;;;;;5073657;28;20399;-60
2022/04/15 10:09:17;;;;;;;8.68;4.82;;;13.00;99.90;;;;;;5073539;28;20491;-59
2022/04/15 10:11:44;;;;;;;9.82;4.70;;;12.80;99.90;;;;;;5073734;28;20044;-59
2022/04/15 10:14:15;;;;;;;8.60;5.05;;;12.90;99.90;;;;;;5073643;28;20040;-60
2022/04/15 10:16:42;;;;;;;11.27;5.30;;;12.80;99.90;;;;;;5073690;28;20090;-60
2022/04/15 10:19:09;;;;;;;7.68;4.70;;;12.60;99.90;;;;;;5073399;28;20121;-60
2022/04/15 10:21:44;;;;;;;9.82;5.35;;;12.70;99.90;;;;;;5072629;28;20033;-60
2022/04/15 10:24:10;;;;;;;9.50;5.65;;;12.70;99.90;;;;;;5073437;28;20040;-60
2022/04/15 10:26:45;;;;;;;12.70;5.15;;;12.60;99.90;;;;;;5073259;28;20051;-60
2022/04/15 10:29:12;;;;;;;8.10;4.85;;;12.50;99.90;;;;;;5073544;28;20041;-59
2022/04/15 10:31:43;;;;;;;6.43;4.80;;;12.30;99.90;;;;;;5072115;28;20159;-60
2022/04/15 10:34:17;;;;;;;6.95;5.07;;;12.30;99.90;;;;;;5072979;28;20036;-60
2022/04/15 10:36:48;;;;;;;9.25;5.10;;;12.40;99.90;;;;;;5073195;28;20040;-59
2022/04/15 10:39:19;;;;;;;6.82;4.78;;;12.40;99.90;;;;;;5073108;28;20041;-60
2022/04/15 10:41:53;;;;;;;8.55;4.63;;;12.40;99.90;;;;;;5072781;28;20047;-60
2022/04/15 10:44:30;;;;;;;7.53;4.97;;;12.30;99.90;;;;;;5072791;28;20101;-59
2022/04/15 10:47:20;;;;;;;9.00;5.15;;;12.20;99.90;;;;;;5071953;28;20053;-59
2022/04/15 10:50:06;;;;;;;;;;;12.20;99.90;;;;;;5051054;28;20102;-60
2022/04/15 10:52:34;;;;;;;7.78;5.57;;;12.20;99.90;;;;;;5050410;28;19959;-59
2022/04/15 10:55:05;;;;;;;10.60;5.20;;;12.20;99.90;;;;;;5050601;28;20205;-60
2022/04/15 10:57:36;;;;;;;10.50;6.00;;;12.40;99.90;;;;;;5050759;28;20040;-60
2022/04/15 11:02:58;;;;;;;11.20;5.45;;;12.10;99.90;;;;;;5050429;28;20120;-59
2022/04/15 11:05:41;;;;;;;8.10;5.38;;;12.10;99.90;;;;;;5050389;28;20123;-59
2022/04/15 11:08:11;;;;;;;11.98;5.55;;;12.10;99.90;;;;;;5067110;28;20056;-60
2022/04/15 11:10:42;;;;;;;7.95;4.85;;;12.20;99.90;;;;;;5050366;28;20453;-60
2022/04/15 11:13:24;;;;;;;10.23;5.35;;;12.10;99.90;;;;;;5049996;28;20048;-59
2022/04/15 11:16:15;;;;;;;10.77;6.00;;;12.00;99.90;;;;;;5050179;28;20048;-60
2022/04/15 11:18:43;;;;;;;10.18;5.60;;;12.00;99.90;;;;;;5050180;28;20041;-60
2022/04/15 11:21:22;;;;;;;9.23;5.30;;;12.10;99.90;;;;;;5033278;28;20136;-60
2022/04/15 11:23:58;;;;;;;7.35;5.70;;;11.80;99.90;;;;;;5050240;28;20040;-60
2022/04/15 11:26:26;;;;;;;8.25;5.47;;;11.90;99.90;;;;;;5056933;28;20080;-60
2022/04/15 11:28:54;;;;;;;8.95;5.90;;;11.80;99.90;;;;;;5072302;28;20447;-60
2022/04/15 11:31:35;;;;;;;8.27;5.27;;;11.80;99.90;;;;;;5072410;28;20045;-60
2022/04/15 11:34:11;;;;;;;11.85;6.78;;;11.80;99.90;;;;;;5072146;28;20483;-59
2022/04/15 11:36:39;;;;;;;9.48;5.28;;;11.70;99.90;;;;;;5072152;28;20123;-60
2022/04/15 11:39:07;;;;;;;9.77;6.17;;;11.70;99.90;;;;;;5072123;28;20047;-60
2022/04/15 11:41:33;;;;;;;9.65;5.63;;;11.70;99.90;;;;;;5072097;28;20269;-60
2022/04/15 11:44:00;;;;;;;11.90;6.13;;;11.80;99.90;;;;;;5071813;28;20059;-60
2022/04/15 11:46:38;;;;;;;11.60;6.18;;;11.80;99.90;;;;;;5072062;28;20041;-60
2022/04/15 11:49:18;;;;;;;7.88;5.00;;;11.90;99.90;;;;;;5072070;28;20044;-60
2022/04/15 11:51:45;;;;;;;7.22;5.22;;;11.60;99.90;;;;;;5071904;28;20034;-60
2022/04/15 11:54:11;;;;;;;8.57;5.55;;;11.60;99.90;;;;;;5071802;28;20128;-60
2022/04/15 11:56:38;;;;;;;9.18;5.82;;;11.70;99.90;;;;;;5071507;28;20119;-61
2022/04/15 11:59:05;;;;;;;12.88;6.13;;;11.80;99.90;;;;;;5071640;28;20071;-60
2022/04/15 12:01:31;;;;;;;9.38;5.70;;;11.60;99.90;;;;;;5070393;28;20071;-60
2022/04/15 12:04:00;;;;;;;11.82;5.75;;;11.60;99.90;;;;;;5071778;28;20039;-61
2022/04/15 12:06:27;;;;;;;10.45;5.32;;;11.80;99.90;;;;;;5071998;28;20039;-60
2022/04/15 12:08:56;;;;;;;7.65;5.32;;;11.70;99.90;;;;;;5071752;28;20040;-61
2022/04/15 12:11:24;;;;;;;8.70;5.68;;;11.90;99.90;;;;;;5072456;28;20036;-60
2022/04/15 12:13:57;;;;;;;7.85;5.32;;;11.90;99.90;;;;;;5071782;28;20037;-60
2022/04/15 12:16:23;;;;;;;9.70;6.05;;;11.90;99.90;;;;;;5071807;28;20041;-60
2022/04/15 12:18:50;;;;;;;11.85;5.10;;;11.90;99.90;;;;;;5071583;28;20483;-60
2022/04/15 12:21:15;;;;;;;12.82;6.07;;;11.80;99.90;;;;;;5072047;28;20036;-61
2022/04/15 12:23:59;;;;;;;11.93;6.10;;;11.90;99.90;;;;;;5071524;28;20047;-60
2022/04/15 12:26:25;;;;;;;7.68;5.07;;;11.80;99.90;;;;;;5071690;28;20071;-60
2022/04/15 12:31:35;;;;;;;9.32;5.45;;;11.60;99.90;;;;;;5071696;28;20048;-60
2022/04/15 12:34:02;;;;;;;9.23;5.45;;;11.60;99.90;;;;;;5071733;28;20097;-60
2022/04/15 12:36:44;;;;;;;12.90;5.93;;;11.60;99.90;;;;;;5071248;28;20049;-60
2022/04/15 12:39:10;;;;;;;8.57;5.72;;;11.50;99.90;;;;;;5071662;28;20043;-61
2022/04/15 12:41:43;;;;;;;11.32;6.00;;;11.40;99.90;;;;;;5071584;28;20036;-60
2022/04/15 12:44:19;;;;;;;12.20;5.85;;;11.50;99.90;;;;;;5072462;28;20048;-60
2022/04/15 12:46:47;;;;;;;8.75;5.05;;;11.40;99.90;;;;;;5075499;28;20044;-60
2022/04/15 12:49:35;;;;;;;9.15;5.63;;;11.30;99.90;;;;;;5075174;28;20036;-60
2022/04/15 12:52:12;;;;;;;8.48;5.70;;;11.30;99.90;;;;;;5075182;28;20382;-60
2022/04/15 12:55:04;;;;;;;9.25;5.75;;;11.30;99.90;;;;;;5075195;28;20033;-61
2022/04/15 12:57:34;;;;;;;9.23;6.30;;;11.30;99.90;;;;;;5075020;28;20386;-60
2022/04/15 13:00:00;;;;;;;10.30;5.65;;;11.30;99.90;;;;;;5075210;28;20119;-60